Time;durP1;ratioP1;P1;durP2;ratioP2;P2;SDS_P1;SDS_P2;PMS_P1;PMS_P2;Temp;Humidity;BMP_temperature;BMP_pressure;BME280_temperature;BME280_humidity;BME280_pressure;Samples;Min_cycle;Max_cycle;Signal;HPM_P1;HPM_P2
2023/12/02 00:02:05;;;;;;;2.30;1.33;;;;;;;5.66;100.00;98923.13;5073114;28;20200;-66
2023/12/02 00:04:31;;;;;;;4.10;1.60;;;;;;;5.63;100.00;98912.19;5072885;28;20634;-66
2023/12/02 00:06:58;;;;;;;1.30;1.30;;;;;;;5.57;100.00;98918.22;5073094;28;20196;-66
2023/12/02 00:09:25;;;;;;;1.13;1.13;;;;;;;5.49;100.00;98925.16;5072993;28;20737;-66
2023/12/02 00:11:53;;;;;;;1.20;1.20;;;;;;;5.47;100.00;98924.31;5073313;28;20195;-66
2023/12/02 00:14:23;;;;;;;2.03;1.93;;;;;;;5.42;100.00;98930.38;5073137;28;20246;-66
2023/12/02 00:16:50;;;;;;;1.13;1.13;;;;;;;5.39;100.00;98938.03;5072613;28;20212;-66
2023/12/02 00:19:17;;;;;;;0.83;0.83;;;;;;;5.25;100.00;98911.16;5072887;28;20703;-66
2023/12/02 00:21:44;;;;;;;1.00;1.00;;;;;;;5.32;100.00;98921.22;5070560;28;20192;-66
2023/12/02 00:24:10;;;;;;;1.27;1.27;;;;;;;5.32;100.00;98926.28;5072734;28;20239;-66
2023/12/02 00:26:37;;;;;;;0.80;0.80;;;;;;;5.30;100.00;98914.44;5072529;28;20253;-67
2023/12/02 00:29:05;;;;;;;0.90;0.90;;;;;;;5.26;100.00;98912.84;5072701;28;20262;-66
2023/12/02 00:31:32;;;;;;;1.50;1.50;;;;;;;5.24;100.00;98896.75;5072743;28;20329;-67
2023/12/02 00:33:58;;;;;;;1.20;1.20;;;;;;;5.22;100.00;98895.97;5072440;28;20634;-66
2023/12/02 00:36:25;;;;;;;1.43;1.40;;;;;;;5.22;100.00;98893.41;5072555;28;20212;-66
2023/12/02 00:38:52;;;;;;;0.90;0.90;;;;;;;5.18;100.00;98889.25;5070974;28;20207;-66
2023/12/02 00:41:19;;;;;;;0.63;0.63;;;;;;;5.20;100.00;98891.78;5072574;28;20562;-66
2023/12/02 00:43:46;;;;;;;0.83;0.83;;;;;;;5.19;100.00;98910.41;5069953;28;20641;-66
2023/12/02 00:46:14;;;;;;;0.80;0.80;;;;;;;5.05;100.00;98903.00;5072533;28;20668;-67
2023/12/02 00:48:41;;;;;;;1.40;1.40;;;;;;;5.04;100.00;98901.31;5072271;28;20200;-66
2023/12/02 00:51:08;;;;;;;5.83;2.27;;;;;;;5.05;100.00;98913.16;5071881;28;20204;-66
2023/12/02 00:53:35;;;;;;;1.33;1.23;;;;;;;4.97;100.00;98884.53;5072545;28;20200;-67
2023/12/02 00:56:02;;;;;;;0.60;0.60;;;;;;;4.85;100.00;98888.97;5071981;28;20200;-66
2023/12/02 00:58:28;;;;;;;1.33;1.23;;;;;;;4.86;100.00;98886.38;5071861;28;20223;-66
2023/12/02 01:00:55;;;;;;;0.80;0.80;;;;;;;4.89;100.00;98891.41;5071846;28;20196;-66
2023/12/02 01:03:23;;;;;;;2.17;2.13;;;;;;;4.93;100.00;98895.59;5071840;28;20222;-67
2023/12/02 01:05:50;;;;;;;0.50;0.50;;;;;;;4.97;100.00;98902.31;5071736;28;20192;-66
2023/12/02 01:08:17;;;;;;;1.03;1.03;;;;;;;4.96;100.00;98903.16;5071775;28;20188;-66
2023/12/02 01:10:43;;;;;;;1.57;0.93;;;;;;;4.93;100.00;98897.28;5071139;28;20204;-67
2023/12/02 01:13:10;;;;;;;0.77;0.77;;;;;;;4.92;100.00;98890.53;5071770;28;20637;-66
2023/12/02 01:15:37;;;;;;;2.10;0.90;;;;;;;4.94;100.00;98889.66;5071861;28;20258;-66
2023/12/02 01:18:04;;;;;;;1.30;1.30;;;;;;;4.89;100.00;98878.72;5071032;28;20212;-66
2023/12/02 01:20:32;;;;;;;1.13;1.13;;;;;;;4.88;100.00;98892.28;5071462;28;20235;-67
2023/12/02 01:22:59;;;;;;;0.63;0.63;;;;;;;4.91;100.00;98889.69;5071695;28;20281;-67
2023/12/02 01:25:25;;;;;;;0.80;0.80;;;;;;;4.91;100.00;98893.94;5071519;28;20254;-66
2023/12/02 01:27:52;;;;;;;0.60;0.60;;;;;;;4.90;100.00;98897.34;5071824;28;20250;-66
2023/12/02 01:30:19;;;;;;;1.30;1.27;;;;;;;4.80;100.00;98886.47;5066605;28;20204;-66
2023/12/02 01:32:45;;;;;;;1.37;1.37;;;;;;;4.65;100.00;98891.81;5071840;28;20652;-67
2023/12/02 01:35:12;;;;;;;0.70;0.70;;;;;;;4.57;100.00;98878.38;5071339;28;20196;-66
2023/12/02 01:37:40;;;;;;;0.60;0.60;;;;;;;4.65;100.00;98884.19;5071418;28;20297;-66
2023/12/02 01:40:08;;;;;;;1.37;1.37;;;;;;;4.64;100.00;98885.03;5071222;28;20192;-66
2023/12/02 01:42:35;;;;;;;1.23;1.23;;;;;;;4.65;100.00;98892.63;5071374;28;20644;-66
2023/12/02 01:45:02;;;;;;;0.97;0.97;;;;;;;4.62;100.00;98871.53;5071386;28;20200;-66
2023/12/02 01:47:28;;;;;;;0.90;0.90;;;;;;;4.72;100.00;98900.97;5071266;28;20636;-66
2023/12/02 01:49:57;;;;;;;0.63;0.63;;;;;;;4.76;100.00;98895.84;5071045;28;20256;-66
2023/12/02 01:52:33;;;;;;;1.00;1.00;;;;;;;4.78;100.00;98890.75;5071051;28;20208;-66
2023/12/02 01:55:02;;;;;;;0.80;0.80;;;;;;;4.76;100.00;98884.84;5071013;28;20668;-66
2023/12/02 01:57:29;;;;;;;0.67;0.67;;;;;;;4.73;100.00;98878.13;5071235;28;20266;-66
2023/12/02 01:59:56;;;;;;;0.70;0.70;;;;;;;4.73;100.00;98875.59;5071005;28;20646;-66
2023/12/02 02:02:25;;;;;;;0.80;0.80;;;;;;;4.73;100.00;98874.75;5070960;28;20207;-67
2023/12/02 02:04:52;;;;;;;0.70;0.70;;;;;;;4.74;100.00;98886.59;5070815;28;20204;-66
2023/12/02 02:07:18;;;;;;;1.37;1.37;;;;;;;4.75;100.00;98881.47;5067218;28;20254;-66
2023/12/02 02:09:46;;;;;;;1.13;1.13;;;;;;;4.70;100.00;98877.31;5070996;28;20208;-66
2023/12/02 02:12:16;;;;;;;1.03;0.97;;;;;;;4.62;100.00;98871.53;5070920;28;20199;-66
2023/12/02 02:14:43;;;;;;;1.50;1.50;;;;;;;4.67;100.00;98874.84;5071058;28;20192;-67
2023/12/02 02:17:10;;;;;;;0.93;0.93;;;;;;;4.55;100.00;98849.66;5070567;28;20269;-67
2023/12/02 02:19:36;;;;;;;1.43;1.43;;;;;;;4.60;100.00;98873.25;5070776;28;20203;-66
2023/12/02 02:22:04;;;;;;;1.37;1.37;;;;;;;4.60;100.00;98875.78;5070764;28;20203;-66
2023/12/02 02:24:31;;;;;;;0.60;0.60;;;;;;;4.62;100.00;98861.38;5075550;28;20730;-66
2023/12/02 02:26:58;;;;;;;1.10;1.10;;;;;;;4.60;100.00;98853.78;5076920;28;20199;-66
2023/12/02 02:29:25;;;;;;;0.80;0.80;;;;;;;4.59;100.00;98861.41;5075512;28;20195;-66
2023/12/02 02:31:52;;;;;;;0.97;0.97;;;;;;;4.60;100.00;98863.94;5075002;28;20253;-66
2023/12/02 02:34:18;;;;;;;1.93;1.93;;;;;;;4.58;100.00;98852.13;5074469;28;20737;-66
2023/12/02 02:36:45;;;;;;;0.70;0.70;;;;;;;4.55;100.00;98839.50;5074461;28;20196;-66
2023/12/02 02:39:14;;;;;;;0.80;0.80;;;;;;;4.55;100.00;98842.88;5074570;28;20242;-66
2023/12/02 02:41:40;;;;;;;0.60;0.60;;;;;;;4.53;100.00;98842.03;5074445;28;20204;-66
2023/12/02 02:44:07;;;;;;;0.73;0.73;;;;;;;4.40;100.00;98842.22;5074361;28;20196;-66
2023/12/02 02:46:34;;;;;;;0.80;0.80;;;;;;;4.31;100.00;98844.91;5074711;28;20584;-66
2023/12/02 02:49:00;;;;;;;0.60;0.60;;;;;;;4.28;100.00;98842.41;5074609;28;20269;-66
2023/12/02 02:51:27;;;;;;;1.70;0.90;;;;;;;4.30;100.00;98831.38;5074271;28;20249;-66
2023/12/02 02:53:54;;;;;;;0.90;0.90;;;;;;;4.04;100.00;98821.59;5074778;28;20192;-66
2023/12/02 02:56:22;;;;;;;0.77;0.77;;;;;;;4.12;100.00;98813.88;5074222;28;20261;-66
2023/12/02 02:58:48;;;;;;;1.07;0.80;;;;;;;4.22;100.00;98806.13;5074367;28;20224;-66
2023/12/02 03:01:15;;;;;;;1.40;1.30;;;;;;;4.21;100.00;98814.59;5073700;28;20196;-66
2023/12/02 03:03:42;;;;;;;4.03;1.40;;;;;;;4.16;100.00;98805.38;5074615;28;20226;-66
2023/12/02 03:06:09;;;;;;;0.67;0.67;;;;;;;4.24;100.00;98801.03;5074128;28;20228;-66
2023/12/02 03:08:36;;;;;;;1.20;1.20;;;;;;;4.32;100.00;98800.94;5074036;28;20630;-66
2023/12/02 03:11:03;;;;;;;1.00;1.00;;;;;;;4.38;100.00;98791.53;5074136;28;20196;-66
2023/12/02 03:13:31;;;;;;;2.10;2.10;;;;;;;4.43;100.00;98799.88;5072431;28;20629;-66
2023/12/02 03:15:58;;;;;;;0.73;0.73;;;;;;;4.47;100.00;98795.59;5073985;28;20196;-67
2023/12/02 03:18:25;;;;;;;0.70;0.70;;;;;;;4.49;100.00;98798.97;5073530;28;20226;-66
2023/12/02 03:20:52;;;;;;;0.80;0.80;;;;;;;4.53;100.00;98815.81;5073614;28;20192;-66
2023/12/02 03:23:19;;;;;;;1.63;1.63;;;;;;;4.51;100.00;98812.47;5073842;28;20664;-67
2023/12/02 03:25:45;;;;;;;0.60;0.60;;;;;;;4.55;100.00;98809.03;5073511;28;20295;-66
2023/12/02 03:28:13;;;;;;;0.60;0.60;;;;;;;4.58;100.00;98796.28;5073834;28;20196;-66
2023/12/02 03:30:41;;;;;;;1.33;1.27;;;;;;;4.62;100.00;98795.38;5071152;28;20200;-66
2023/12/02 03:33:09;;;;;;;0.77;0.77;;;;;;;4.53;100.00;98785.34;5073138;28;20269;-67
2023/12/02 03:35:35;;;;;;;0.50;0.50;;;;;;;4.47;100.00;98775.31;5073793;28;20713;-66
2023/12/02 03:38:02;;;;;;;1.23;1.20;;;;;;;4.59;100.00;98775.94;5073679;28;20227;-66
2023/12/02 03:40:29;;;;;;;1.00;1.00;;;;;;;4.56;100.00;98775.16;5073702;28;20200;-66
2023/12/02 03:42:55;;;;;;;0.60;0.60;;;;;;;4.59;100.00;98770.03;5073326;28;20258;-66
2023/12/02 03:45:22;;;;;;;1.00;1.00;;;;;;;4.62;100.00;98777.63;5073578;28;20200;-66
2023/12/02 03:47:50;;;;;;;0.77;0.77;;;;;;;4.64;100.00;98771.66;5071988;28;20196;-66
2023/12/02 03:50:18;;;;;;;0.80;0.80;;;;;;;4.68;100.00;98780.91;5073488;28;20630;-66
2023/12/02 03:52:45;;;;;;;1.30;1.30;;;;;;;4.68;100.00;98785.13;5073134;28;20257;-66
2023/12/02 03:55:12;;;;;;;1.83;1.73;;;;;;;4.67;100.00;98779.22;5073563;28;20192;-66
2023/12/02 03:57:39;;;;;;;1.53;1.53;;;;;;;4.65;100.00;98780.91;5072468;28;20234;-66
2023/12/02 04:00:11;;;;;;;1.20;1.20;;;;;;;4.67;100.00;98778.38;5072941;28;20199;-66
2023/12/02 04:02:38;;;;;;;0.70;0.70;;;;;;;4.69;100.00;98784.25;5073298;28;20687;-66
2023/12/02 04:05:09;;;;;;;2.37;2.20;;;;;;;4.71;100.00;98787.63;5073077;28;20192;-66
2023/12/02 04:07:35;;;;;;;1.27;1.27;;;;;;;4.69;100.00;98789.31;5073147;28;20694;-67
2023/12/02 04:10:03;;;;;;;0.80;0.80;;;;;;;4.62;100.00;98767.47;5072730;28;20200;-66
2023/12/02 04:12:30;;;;;;;1.13;1.13;;;;;;;4.65;100.00;98777.56;5072877;28;20196;-66
2023/12/02 04:14:57;;;;;;;0.50;0.50;;;;;;;4.43;100.00;98743.22;5073086;28;20218;-66
2023/12/02 04:17:24;;;;;;;1.07;1.07;;;;;;;4.54;100.00;98776.88;5073021;28;20633;-66
2023/12/02 04:19:51;;;;;;;1.63;1.40;;;;;;;4.54;100.00;98766.75;5072784;28;20246;-67
2023/12/02 04:22:20;;;;;;;2.23;2.23;;;;;;;4.54;100.00;98781.97;5072437;28;20745;-66
2023/12/02 04:24:46;;;;;;;1.10;1.10;;;;;;;4.55;100.00;98768.44;5072562;28;20203;-66
2023/12/02 04:27:13;;;;;;;1.23;1.23;;;;;;;4.53;100.00;98770.97;5072299;28;21412;-66
2023/12/02 04:29:42;;;;;;;1.03;1.03;;;;;;;4.49;100.00;98766.81;5072802;28;20710;-66
2023/12/02 04:32:09;;;;;;;1.60;1.60;;;;;;;4.46;100.00;98778.72;5072261;28;20242;-66
2023/12/02 04:34:36;;;;;;;1.40;1.40;;;;;;;4.43;100.00;98779.59;5072371;28;20692;-66
2023/12/02 04:37:02;;;;;;;0.90;0.90;;;;;;;4.42;100.00;98799.94;5072200;28;20199;-66
2023/12/02 04:39:31;;;;;;;1.00;1.00;;;;;;;4.38;100.00;98806.75;5072480;28;20223;-66
2023/12/02 04:41:57;;;;;;;1.67;1.67;;;;;;;4.32;100.00;98806.84;5072332;28;20200;-67
2023/12/02 04:44:24;;;;;;;0.70;0.70;;;;;;;4.26;100.00;98793.41;5071735;28;20329;-66
2023/12/02 04:46:51;;;;;;;0.93;0.93;;;;;;;4.21;100.00;98804.44;5071519;28;20196;-66
2023/12/02 04:49:17;;;;;;;1.17;1.17;;;;;;;4.17;100.00;98797.72;5071802;28;20191;-66
2023/12/02 04:51:44;;;;;;;1.53;1.53;;;;;;;4.13;100.00;98796.13;5071992;28;20745;-66
2023/12/02 04:54:11;;;;;;;1.33;1.33;;;;;;;4.15;100.00;98781.72;5071984;28;20196;-66
2023/12/02 04:56:39;;;;;;;1.17;1.17;;;;;;;4.17;100.00;98792.66;5072049;28;20303;-65
2023/12/02 04:59:06;;;;;;;1.23;1.23;;;;;;;4.17;100.00;98785.06;5071703;28;20224;-66
2023/12/02 05:01:33;;;;;;;0.93;0.93;;;;;;;4.15;100.00;98794.41;5071984;28;20208;-66
2023/12/02 05:04:00;;;;;;;1.73;1.73;;;;;;;4.18;100.00;98799.44;5072033;28;20200;-66
2023/12/02 05:06:27;;;;;;;0.80;0.80;;;;;;;4.15;100.00;98799.47;5071829;28;20192;-66
2023/12/02 05:08:53;;;;;;;1.10;1.10;;;;;;;4.07;100.00;98796.19;5071712;28;20195;-66
2023/12/02 05:11:22;;;;;;;0.50;0.50;;;;;;;4.08;100.00;98782.66;5070219;28;20204;-66
2023/12/02 05:13:51;;;;;;;1.53;1.43;;;;;;;4.01;100.00;98781.06;5071644;28;20200;-66
2023/12/02 05:16:18;;;;;;;1.63;1.63;;;;;;;3.93;100.00;98766.81;5071840;28;20220;-66
2023/12/02 05:18:45;;;;;;;1.37;1.37;;;;;;;3.92;100.00;98786.25;5071575;28;20216;-66
2023/12/02 05:21:12;;;;;;;1.70;1.60;;;;;;;3.96;100.00;98767.63;5071647;28;20579;-66
2023/12/02 05:23:40;;;;;;;0.50;0.50;;;;;;;3.99;100.00;98762.50;5071270;28;20196;-66
2023/12/02 05:26:08;;;;;;;0.90;0.90;;;;;;;4.04;100.00;98765.78;5071923;28;20630;-66
2023/12/02 05:28:36;;;;;;;0.63;0.63;;;;;;;4.00;100.00;98756.59;5070953;28;20200;-66
2023/12/02 05:31:05;;;;;;;0.87;0.87;;;;;;;3.92;100.00;98745.69;5067854;28;20672;-66
2023/12/02 05:33:32;;;;;;;1.20;1.20;;;;;;;3.91;100.00;98760.94;5070034;28;20684;-66
2023/12/02 05:35:58;;;;;;;0.67;0.67;;;;;;;3.91;100.00;98769.38;5071553;28;20261;-66
2023/12/02 05:38:25;;;;;;;1.23;1.23;;;;;;;3.89;100.00;98760.09;5071421;28;20207;-66
2023/12/02 05:40:52;;;;;;;1.70;1.70;;;;;;;3.93;100.00;98749.91;5071088;28;20218;-66
2023/12/02 05:43:19;;;;;;;1.43;1.43;;;;;;;3.94;100.00;98754.09;5070985;28;20200;-65
2023/12/02 05:45:45;;;;;;;0.80;0.80;;;;;;;3.97;100.00;98779.44;5070676;28;20196;-66
2023/12/02 05:48:14;;;;;;;0.90;0.87;;;;;;;3.78;100.00;98757.72;5071730;28;20191;-66
2023/12/02 05:50:40;;;;;;;1.17;1.17;;;;;;;3.76;100.00;98784.78;5071396;28;20689;-65
2023/12/02 05:53:07;;;;;;;0.60;0.60;;;;;;;3.84;100.00;98774.56;5071172;28;20196;-66
2023/12/02 05:55:34;;;;;;;1.33;1.33;;;;;;;3.74;100.00;98766.25;5068700;28;20196;-66
2023/12/02 05:58:00;;;;;;;4.60;2.63;;;;;;;3.77;100.00;98770.41;5070436;28;20302;-67
2023/12/02 06:00:27;;;;;;;0.70;0.70;;;;;;;3.78;100.00;98777.19;5071219;28;20281;-66
2023/12/02 06:02:54;;;;;;;2.30;2.20;;;;;;;3.65;100.00;98761.28;5070872;28;20257;-66
2023/12/02 06:05:22;;;;;;;1.33;1.33;;;;;;;3.75;100.00;98767.06;5071454;28;20257;-67
2023/12/02 06:07:48;;;;;;;1.67;1.67;;;;;;;3.76;100.00;98759.44;5070943;28;20269;-66
2023/12/02 06:10:15;;;;;;;0.70;0.70;;;;;;;3.91;100.00;98787.09;5071179;28;20199;-66
2023/12/02 06:12:42;;;;;;;1.10;1.10;;;;;;;3.95;100.00;98786.22;5070691;28;20659;-66
2023/12/02 06:15:11;;;;;;;0.70;0.70;;;;;;;4.00;100.00;98789.53;5070695;28;20196;-66
2023/12/02 06:17:38;;;;;;;1.50;0.80;;;;;;;4.10;100.00;98803.75;5071875;28;20196;-66
2023/12/02 06:20:06;;;;;;;1.43;1.43;;;;;;;4.13;100.00;98790.22;5070800;28;20265;-66
2023/12/02 06:22:34;;;;;;;0.87;0.70;;;;;;;4.18;100.00;98769.00;5070861;28;20206;-66
2023/12/02 06:25:01;;;;;;;0.87;0.87;;;;;;;4.24;100.00;98771.44;5070774;28;20200;-66
2023/12/02 06:27:28;;;;;;;0.97;0.97;;;;;;;4.28;100.00;98779.00;5070726;28;20582;-66
2023/12/02 06:29:55;;;;;;;0.53;0.53;;;;;;;4.32;100.00;98770.47;5070959;28;20192;-66
2023/12/02 06:32:22;;;;;;;0.53;0.53;;;;;;;4.39;100.00;98769.53;5070621;28;20671;-66
2023/12/02 06:34:48;;;;;;;0.90;0.90;;;;;;;4.40;100.00;98774.56;5070898;28;20196;-66
2023/12/02 06:37:15;;;;;;;0.90;0.90;;;;;;;4.46;100.00;98773.66;5065386;28;20658;-66
2023/12/02 06:39:43;;;;;;;0.77;0.77;;;;;;;4.55;100.00;98791.28;5070703;28;20208;-66
2023/12/02 06:42:10;;;;;;;0.70;0.70;;;;;;;4.56;100.00;98800.53;5070508;28;20196;-66
2023/12/02 06:44:36;;;;;;;0.67;0.67;;;;;;;4.59;100.00;98786.09;5070666;28;20258;-66
2023/12/02 06:47:04;;;;;;;1.63;1.63;;;;;;;4.66;100.00;98781.75;5070757;28;20254;-66
2023/12/02 06:49:30;;;;;;;1.07;1.07;;;;;;;4.67;100.00;98786.00;5070361;28;20191;-66
2023/12/02 06:51:57;;;;;;;1.00;1.00;;;;;;;4.73;100.00;98768.94;5070338;28;20203;-66
2023/12/02 06:54:24;;;;;;;0.80;0.80;;;;;;;4.82;100.00;98765.41;5068953;28;20266;-66
2023/12/02 06:56:52;;;;;;;1.07;1.07;;;;;;;4.70;100.00;98765.63;5070227;28;20208;-66
2023/12/02 06:59:19;;;;;;;0.77;0.77;;;;;;;4.80;100.00;98773.91;5069206;28;20216;-66
2023/12/02 07:01:46;;;;;;;1.00;1.00;;;;;;;4.71;100.00;98755.47;5070440;28;20206;-66
2023/12/02 07:04:12;;;;;;;0.83;0.83;;;;;;;4.89;100.00;98784.75;5070251;28;20239;-66
2023/12/02 07:06:40;;;;;;;0.53;0.53;;;;;;;4.92;100.00;98789.78;5070191;28;20680;-66
2023/12/02 07:09:07;;;;;;;0.60;0.60;;;;;;;4.96;100.00;98791.41;5070156;28;20204;-63
2023/12/02 07:11:34;;;;;;;0.70;0.70;;;;;;;5.03;100.00;98798.06;5070727;28;20250;-62
2023/12/02 07:14:02;;;;;;;0.67;0.67;;;;;;;5.05;100.00;98806.50;5071682;28;20257;-62
2023/12/02 07:16:29;;;;;;;0.70;0.70;;;;;;;5.19;100.00;98824.03;5068792;28;20533;-63
2023/12/02 07:18:56;;;;;;;0.40;0.40;;;;;;;5.21;100.00;98823.13;5071999;28;20219;-61
2023/12/02 07:21:23;;;;;;;2.93;1.23;;;;;;;5.28;100.00;98799.28;5070973;28;20238;-62
2023/12/02 07:23:50;;;;;;;0.97;0.97;;;;;;;5.38;100.00;98806.75;5071039;28;20215;-62
2023/12/02 07:26:16;;;;;;;0.90;0.90;;;;;;;5.46;100.00;98803.19;5072769;28;20204;-66
2023/12/02 07:28:43;;;;;;;0.90;0.90;;;;;;;5.54;100.00;98801.34;5073322;28;20195;-66
2023/12/02 07:31:14;;;;;;;0.63;0.63;;;;;;;5.54;100.00;98813.19;5067037;28;20257;-66
2023/12/02 07:33:41;;;;;;;1.53;1.43;;;;;;;5.62;100.00;98804.53;5073544;28;20290;-66
2023/12/02 07:36:10;;;;;;;1.10;1.10;;;;;;;5.69;100.00;98812.91;5073729;28;20204;-66
2023/12/02 07:38:38;;;;;;;0.73;0.73;;;;;;;5.71;100.00;98811.19;5073226;28;20215;-66
2023/12/02 07:41:05;;;;;;;4.00;2.80;;;;;;;5.76;100.00;98796.66;5073120;28;20208;-66
2023/12/02 07:43:32;;;;;;;2.87;2.77;;;;;;;5.71;100.00;98798.47;5074182;28;20253;-66
2023/12/02 07:45:59;;;;;;;4.77;2.40;;;;;;;5.68;100.00;98803.63;5073354;28;20196;-66
2023/12/02 07:48:28;;;;;;;1.60;1.17;;;;;;;5.71;100.00;98808.63;5074931;28;20246;-66
2023/12/02 07:50:54;;;;;;;5.33;4.90;;;;;;;5.80;100.00;98823.69;5073432;28;20207;-67
2023/12/02 07:53:21;;;;;;;2.57;2.47;;;;;;;5.85;100.00;98828.72;5073405;28;21063;-67
2023/12/02 07:55:48;;;;;;;1.10;1.10;;;;;;;5.91;100.00;98816.72;5073718;28;20266;-66
2023/12/02 07:58:14;;;;;;;3.30;2.23;;;;;;;5.84;100.00;98810.06;5073005;28;20224;-66
2023/12/02 08:00:41;;;;;;;1.60;1.50;;;;;;;5.98;100.00;98820.81;5073858;28;20204;-66
2023/12/02 08:03:08;;;;;;;1.93;1.83;;;;;;;5.98;100.00;98823.34;5073048;28;20196;-66
2023/12/02 08:05:36;;;;;;;3.23;2.43;;;;;;;6.04;100.00;98843.56;5072711;28;20262;-67
2023/12/02 08:08:03;;;;;;;2.23;2.17;;;;;;;6.07;100.00;98825.72;5073183;28;20196;-66
2023/12/02 08:10:30;;;;;;;2.40;2.30;;;;;;;6.08;100.00;98842.63;5072962;28;20738;-66
2023/12/02 08:12:56;;;;;;;13.27;8.40;;;;;;;6.13;100.00;98848.50;5071516;28;20495;-66
2023/12/02 08:15:23;;;;;;;2.40;2.20;;;;;;;6.16;100.00;98858.59;5071929;28;20257;-66
2023/12/02 08:17:50;;;;;;;3.60;3.43;;;;;;;6.21;100.00;98868.66;5071627;28;20283;-66
2023/12/02 08:20:16;;;;;;;1.93;1.93;;;;;;;6.20;100.00;98864.47;5071095;28;20224;-67
2023/12/02 08:22:45;;;;;;;8.57;3.47;;;;;;;6.17;100.00;98855.16;5071198;28;20200;-67
2023/12/02 08:25:11;;;;;;;10.25;5.60;;;;;;;6.16;100.00;98843.34;5068736;28;20841;-64
2023/12/02 08:27:38;;;;;;;3.43;3.23;;;;;;;6.26;100.00;98844.81;5072258;28;20195;-65
2023/12/02 08:30:07;;;;;;;2.60;2.43;;;;;;;6.29;100.00;98834.56;5072173;28;20199;-65
2023/12/02 08:32:34;;;;;;;1.77;1.67;;;;;;;6.24;100.00;98846.53;5071859;28;20205;-65
2023/12/02 08:35:01;;;;;;;11.60;8.47;;;;;;;6.20;100.00;98844.91;5070512;28;20200;-64
2023/12/02 08:37:28;;;;;;;11.83;9.33;;;;;;;6.10;100.00;98838.38;5069749;28;20561;-63
2023/12/02 08:39:56;;;;;;;9.33;8.00;;;;;;;6.00;100.00;98824.16;5070371;28;20684;-63
2023/12/02 08:42:22;;;;;;;3.80;2.77;;;;;;;6.03;100.00;98820.72;5069670;28;20199;-64
2023/12/02 08:44:49;;;;;;;1.80;1.73;;;;;;;6.05;100.00;98814.72;5069463;28;20234;-65
2023/12/02 08:47:16;;;;;;;4.87;4.67;;;;;;;6.08;100.00;98811.25;5067898;28;20714;-64
2023/12/02 08:49:42;;;;;;;2.57;2.47;;;;;;;6.13;100.00;98791.66;5074831;28;20195;-64
2023/12/02 08:52:09;;;;;;;10.93;7.03;;;;;;;6.16;100.00;98797.53;5069191;28;20664;-65
2023/12/02 08:54:36;;;;;;;14.27;10.53;;;;;;;6.18;100.00;98779.66;5068475;28;20209;-63
2023/12/02 08:57:04;;;;;;;18.50;10.73;;;;;;;6.23;100.00;98776.16;5069691;28;20203;-65
2023/12/02 08:59:31;;;;;;;8.80;8.03;;;;;;;6.24;100.00;98772.72;5070686;28;20224;-64
2023/12/02 09:01:58;;;;;;;2.47;2.27;;;;;;;6.26;100.00;98777.78;5070405;28;20664;-64
2023/12/02 09:04:24;;;;;;;3.57;2.10;;;;;;;6.29;100.00;98777.72;5069314;28;20230;-65
2023/12/02 09:06:51;;;;;;;2.93;2.73;;;;;;;6.34;100.00;98764.00;5067669;28;20261;-64
2023/12/02 09:09:18;;;;;;;7.33;5.87;;;;;;;6.38;100.00;98762.22;5071334;28;20201;-64
2023/12/02 09:11:45;;;;;;;12.50;7.27;;;;;;;6.45;100.00;98755.28;5070072;28;20196;-64
2023/12/02 09:14:13;;;;;;;9.90;4.20;;;;;;;6.52;100.00;98739.84;5070222;28;20261;-64
2023/12/02 09:16:46;;;;;;;8.63;3.40;;;;;;;6.60;100.00;98748.13;5070931;28;20729;-64
2023/12/02 09:19:47;;;;;;;4.93;3.50;;;;;;;6.65;100.00;98755.66;5070280;28;20615;-64
2023/12/02 09:22:38;;;;;;;2.43;2.33;;;;;;;6.73;100.00;98746.94;5069258;28;20192;-66
2023/12/02 09:25:05;;;;;;;1.43;1.43;;;;;;;6.75;100.00;98752.81;5066959;28;20227;-64
2023/12/02 09:28:12;;;;;;;6.93;3.27;;;;;;;6.86;100.00;98750.00;5071045;28;20204;-64
2023/12/02 09:30:41;;;;;;;1.97;1.87;;;;;;;6.84;100.00;98729.69;5071068;28;20250;-64
2023/12/02 09:33:08;;;;;;;1.90;1.90;;;;;;;6.98;100.00;98744.59;5068891;28;20199;-64
2023/12/02 09:35:35;;;;;;;9.63;4.17;;;;;;;7.08;100.00;98740.91;5068883;28;20203;-65
2023/12/02 09:38:03;;;;;;;7.03;5.00;;;;;;;7.12;100.00;98729.78;5069758;28;20208;-64
2023/12/02 09:40:38;;;;;;;2.50;2.23;;;;;;;7.15;100.00;98731.41;5069410;28;20216;-64
2023/12/02 09:43:33;;;;;;;3.80;3.50;;;;;;;7.22;100.00;98726.09;5070134;28;20257;-65
2023/12/02 09:46:20;;;;;;;3.37;3.13;;;;;;;7.32;100.00;98731.78;5034756;28;20240;-64
2023/12/02 09:48:56;;;;;;;2.60;2.40;;;;;;;7.33;100.00;98728.38;5070043;28;20282;-65
2023/12/02 09:51:42;;;;;;;4.30;2.87;;;;;;;7.36;100.00;98739.31;5069474;28;20207;-64
2023/12/02 09:54:20;;;;;;;2.77;2.47;;;;;;;7.44;100.00;98738.25;5070943;28;20191;-64
2023/12/02 09:56:56;;;;;;;1.67;1.67;;;;;;;7.49;100.00;98726.22;5070632;28;20227;-65
2023/12/02 09:59:31;;;;;;;3.10;2.80;;;;;;;7.50;100.00;98725.31;5070807;28;20679;-64
2023/12/02 10:02:20;;;;;;;3.70;2.93;;;;;;;7.57;100.00;98722.56;5069410;28;20765;-64
2023/12/02 10:04:57;;;;;;;6.20;3.60;;;;;;;7.64;100.00;98718.09;5068069;28;20207;-64
2023/12/02 10:07:32;;;;;;;3.00;2.90;;;;;;;7.64;100.00;98705.34;5070520;28;20195;-64
2023/12/02 10:10:08;;;;;;;2.07;1.97;;;;;;;7.67;100.00;98679.75;5070317;28;20199;-65
2023/12/02 10:12:47;;;;;;;3.30;3.07;;;;;;;7.81;100.00;98692.94;5070402;28;20553;-65
2023/12/02 10:15:16;;;;;;;2.70;2.47;;;;;;;7.87;100.00;98672.34;5070872;28;20221;-65
2023/12/02 10:17:50;;;;;;;6.10;3.70;;;;;;;7.89;100.00;98675.66;5070629;28;20200;-64
2023/12/02 10:20:20;;;;;;;3.70;3.07;;;;;;;7.92;100.00;98685.78;5067876;28;20250;-65
2023/12/02 10:22:54;;;;;;;3.50;3.20;;;;;;;8.00;100.00;98673.63;5066964;28;20664;-64
2023/12/02 10:25:33;;;;;;;4.40;2.90;;;;;;;8.06;100.00;98665.78;5067818;28;20664;-64
2023/12/02 10:28:21;;;;;;;1.60;1.60;;;;;;;8.10;100.00;98654.59;5070156;28;20203;-65
2023/12/02 10:30:55;;;;;;;7.57;3.13;;;;;;;8.14;100.00;98676.56;5070493;28;20622;-64
2023/12/02 10:33:29;;;;;;;3.23;2.47;;;;;;;8.18;100.00;98662.81;5070256;28;20200;-63
2023/12/02 10:36:05;;;;;;;5.00;3.87;;;;;;;8.24;100.00;98662.63;5070475;28;20196;-64
2023/12/02 10:38:46;;;;;;;3.73;3.40;;;;;;;8.28;100.00;98661.69;5069947;28;20208;-64
2023/12/02 10:41:21;;;;;;;4.10;2.40;;;;;;;8.33;100.00;98667.47;5070132;28;20761;-65
2023/12/02 10:43:52;;;;;;;8.57;2.90;;;;;;;8.38;100.00;98660.50;5071455;28;20257;-64
2023/12/02 10:46:19;;;;;;;2.47;2.37;;;;;;;8.42;100.00;98656.97;5074035;28;20196;-64
2023/12/02 10:48:47;;;;;;;12.43;5.23;;;;;;;8.46;100.00;98647.47;5073859;28;20200;-65
2023/12/02 10:51:15;;;;;;;9.07;4.73;;;;;;;8.46;100.00;98641.53;5073547;28;20204;-64
2023/12/02 10:53:43;;;;;;;6.47;5.37;;;;;;;8.58;100.00;98641.13;5073856;28;20206;-64
2023/12/02 10:56:16;;;;;;;6.37;5.77;;;;;;;8.68;100.00;98639.91;5073821;28;20196;-64
2023/12/02 10:58:45;;;;;;;9.23;5.47;;;;;;;8.66;100.00;98628.94;5073628;28;20314;-64
2023/12/02 11:01:16;;;;;;;9.17;3.30;;;;;;;8.73;100.00;98640.56;5073738;28;20691;-64
2023/12/02 11:03:51;;;;;;;4.60;4.20;;;;;;;8.82;100.00;98645.38;5073376;28;20207;-65
2023/12/02 11:06:25;;;;;;;4.17;3.07;;;;;;;8.89;100.00;98631.47;5073793;28;20198;-64
2023/12/02 11:08:55;;;;;;;2.47;2.37;;;;;;;8.98;100.00;98628.63;5073484;28;20192;-65
2023/12/02 11:11:43;;;;;;;7.97;3.07;;;;;;;9.02;100.00;98617.38;5073625;28;20197;-64
2023/12/02 11:14:16;;;;;;;2.53;2.33;;;;;;;9.07;100.00;98615.50;5073550;28;20192;-64
2023/12/02 11:16:48;;;;;;;4.53;3.37;;;;;;;9.08;100.00;98616.34;5073599;28;20290;-67
2023/12/02 11:19:29;;;;;;;10.13;7.50;;;;;;;9.28;100.00;98630.03;5066553;28;20450;-66
2023/12/02 11:22:31;;;;;;;5.33;5.03;;;;;;;9.41;100.00;98633.81;5070839;28;20625;-67
2023/12/02 11:25:15;;;;;;;2.90;2.80;;;;;;;9.48;100.00;98627.56;5068145;28;20686;-67
2023/12/02 11:27:49;;;;;;;4.37;3.37;;;;;;;9.57;100.00;98620.41;5071706;28;20192;-66
2023/12/02 11:30:29;;;;;;;4.17;3.87;;;;;;;9.65;100.00;98619.25;5069715;28;20200;-66
2023/12/02 11:33:10;;;;;;;5.00;3.50;;;;;;;9.76;100.00;98626.50;5070163;28;20254;-67
2023/12/02 11:35:54;;;;;;;3.60;3.30;;;;;;;9.87;100.00;98649.94;5074417;28;20196;-66
2023/12/02 11:38:21;;;;;;;3.87;3.27;;;;;;;9.93;100.00;98649.72;5069799;28;20253;-67
2023/12/02 11:40:59;;;;;;;3.67;3.23;;;;;;;10.01;100.00;98634.88;5069484;28;20634;-66
2023/12/02 11:43:42;;;;;;;2.87;2.67;;;;;;;10.07;100.00;98636.38;5070149;28;20208;-67